Star Dieppe — LEQZ3 — position and weather

sailwx.info

Track history (hours):
 
Tides and Currents Weather Stations Pressure Air Temp Water Temp Dewpoint Dewpoint Depression Visibility Wind Speed Wind Dir Waves Ship Positions

Star Dieppe

Last reported at 2015-Jan-27 05:05 UTC. Time now 2015-Jan-27 10:30 UTC.
Position N 29°57' E 122°15'.

Length 182 m; draft 9.8 m.

Type: Cargo ship. MMSI: 257439000.

Date/timePositionNaut miles runAvg speedWind from/ knotsBaromVisibWave heightAir tempDewpointWater temp
2015-Jan-27 05:05N 29°57' E 122°15'49711962.3
2015-Jan-27 02:33N 54°19' W 130°57'1211.8
2015-Jan-27 01:33N 54°15' W 130°38'9 9.1
2015-Jan-27 00:33N 54°10' W 130°25'49974727.6
2015-Jan-26 23:29N 29°57' E 122°15'0 0.0
2015-Jan-26 17:17N 29°57' E 122°15'0 0.0
2015-Jan-26 16:17N 29°57' E 122°15'  
2015-Jan-24 06:29N 51°24' W 128°27'1612.8
2015-Jan-24 05:15N 51°09' W 128°23'1012.4
2015-Jan-24 04:25N 50°59' W 128°26'1112.2
2015-Jan-24 03:33N 50°48' W 128°30'12711.6
2015-Jan-23 16:33N 49°08' W 126°27'1212.5
2015-Jan-23 15:33N 49°01' W 126°12'1211.7
2015-Jan-23 14:33N 48°54' W 125°57'1111.0
2015-Jan-23 13:33N 48°51' W 125°41'1111.3
2015-Jan-23 12:33N 48°48' W 125°25'10 9.6
2015-Jan-23 11:33N 48°50' W 125°11'1110.8
2015-Jan-23 10:30N 48°58' W 124°59'9 9.7
2015-Jan-23 09:33N 49°05' W 124°50'8 8.2
2015-Jan-23 08:33N 49°13' W 124°49'0 0.4
2015-Jan-23 07:32N 49°14' W 124°49'0 0.0
2015-Jan-23 05:23N 49°14' W 124°49'0 0.0
2015-Jan-23 04:29N 49°14' W 124°49'0 0.0
2015-Jan-23 03:26N 49°14' W 124°49'0 0.0
2015-Jan-23 02:32N 49°14' W 124°49'0 0.0
2015-Jan-23 01:20N 49°14' W 124°49'0 0.0
2015-Jan-23 00:32N 49°14' W 124°49'0 0.0
2015-Jan-22 23:32N 49°14' W 124°49'0 0.0
2015-Jan-22 22:32N 49°14' W 124°49'0 0.0
2015-Jan-22 21:32N 49°14' W 124°49'0 0.0
2015-Jan-22 20:32N 49°14' W 124°49'0 0.0
2015-Jan-22 19:32N 49°14' W 124°49'0 0.0
2015-Jan-22 18:32N 49°14' W 124°49'0 0.0
2015-Jan-22 17:26N 49°14' W 124°49'0 0.0
2015-Jan-22 16:32N 49°14' W 124°49'0 0.0
2015-Jan-22 15:20N 49°14' W 124°49'0 0.0
2015-Jan-22 14:32N 49°14' W 124°49'0 0.0
2015-Jan-22 13:32N 49°14' W 124°49'0 0.0
2015-Jan-22 12:32N 49°14' W 124°49'0 0.0
2015-Jan-22 11:26N 49°14' W 124°49'0 0.0
2015-Jan-22 10:32N 49°14' W 124°49'0 0.0
2015-Jan-22 09:26N 49°14' W 124°49'0 0.0
2015-Jan-22 08:32N 49°14' W 124°49'0 0.0
2015-Jan-22 07:32N 49°14' W 124°49'0 0.0
2015-Jan-22 06:26N 49°14' W 124°49'0 0.0
2015-Jan-22 05:32N 49°14' W 124°49'0 0.0
2015-Jan-22 04:20N 49°14' W 124°49'0 0.0
2015-Jan-22 03:32N 49°14' W 124°49'0 0.0
2015-Jan-22 02:20N 49°14' W 124°49'0 0.0
2015-Jan-22 01:23N 49°14' W 124°49'0 0.0
2015-Jan-22 00:29N 49°14' W 124°49'0 0.0
2015-Jan-21 23:26N 49°14' W 124°49'0 0.0
2015-Jan-21 22:44N 49°14' W 124°49'0 0.0
2015-Jan-21 22:32N 49°14' W 124°49'0 0.0
2015-Jan-21 21:32N 49°14' W 124°49'0 0.0
2015-Jan-21 20:32N 49°14' W 124°49'0 0.0
2015-Jan-21 19:32N 49°14' W 124°49'0 0.0
2015-Jan-21 18:32N 49°14' W 124°49'0 0.0
2015-Jan-21 17:26N 49°14' W 124°49'0 0.0
2015-Jan-21 16:26N 49°14' W 124°49'0 0.0
2015-Jan-21 15:29N 49°14' W 124°49'0 0.0
2015-Jan-21 14:33N 49°14' W 124°49'6 6.1
2015-Jan-21 13:33N 49°08' W 124°49'1010.1
2015-Jan-21 12:32N 48°59' W 124°56'1111.4
2015-Jan-21 11:33N 48°51' W 125°09'1010.4
2015-Jan-21 10:33N 48°41' W 125°13'1111.3
2015-Jan-21 09:33N 48°31' W 125°05'1211.8
2015-Jan-21 08:33N 48°31' W 124°47'1111.2
2015-Jan-21 07:33N 48°27' W 124°31'1312.5
2015-Jan-21 06:33N 48°23' W 124°14'1413.5
2015-Jan-21 05:33N 48°17' W 123°55'1515.0
2015-Jan-21 04:33N 48°15' W 123°33'1312.8
2015-Jan-21 03:33N 48°23' W 123°17'1312.8
2015-Jan-21 02:34N 48°36' W 123°14'1414.0
2015-Jan-21 01:33N 48°49' W 123°21'1312.8
2015-Jan-21 00:33N 48°57' W 123°36'5 4.7
2015-Jan-20 23:33N 48°56' W 123°43'0 0.1
2015-Jan-20 22:33N 48°55' W 123°43'0 0.0
2015-Jan-20 21:10N 48°55' W 123°43'0 0.0
2015-Jan-20 20:28N 48°55' W 123°43'0 0.0
2015-Jan-20 19:31N 48°55' W 123°43'0 0.0
2015-Jan-20 18:31N 48°55' W 123°43'0 0.0
2015-Jan-20 17:22N 48°55' W 123°43'0 0.0
2015-Jan-20 16:31N 48°55' W 123°43'0 0.0
2015-Jan-20 15:16N 48°55' W 123°43'0 0.0
2015-Jan-20 14:33N 48°55' W 123°43'0 0.0
2015-Jan-20 13:33N 48°55' W 123°43'0 0.0
2015-Jan-20 12:33N 48°55' W 123°43'0 0.0
2015-Jan-20 11:33N 48°55' W 123°43'0 0.0
2015-Jan-20 10:33N 48°55' W 123°43'0 0.0
2015-Jan-20 09:27N 48°55' W 123°43'0 0.0
2015-Jan-20 08:32N 48°55' W 123°43'0 0.0
2015-Jan-20 07:32N 48°55' W 123°43'0 0.0
2015-Jan-20 06:32N 48°55' W 123°43'0 0.0
2015-Jan-20 05:26N 48°55' W 123°43'0 0.0
2015-Jan-20 04:29N 48°55' W 123°43'0 0.0
2015-Jan-20 03:14N 48°55' W 123°43'0 0.0
2015-Jan-20 02:14N 48°55' W 123°43'0 0.0
2015-Jan-20 01:32N 48°55' W 123°43'0 0.0
2015-Jan-20 00:25N 48°55' W 123°43'0 0.0
2015-Jan-19 23:31N 48°55' W 123°43'0 0.0
2015-Jan-19 22:31N 48°55' W 123°43'0 0.0
2015-Jan-19 21:31N 48°55' W 123°43'0 0.0
2015-Jan-19 20:30N 48°55' W 123°43'0 0.0
2015-Jan-19 19:12N 48°55' W 123°43'0 0.0
2015-Jan-19 18:30N 48°55' W 123°43'0 0.0
2015-Jan-19 17:24N 48°55' W 123°43'0 0.0
2015-Jan-19 16:33N 48°55' W 123°43'3 2.5
2015-Jan-19 15:33N 48°55' W 123°39'8 8.1
2015-Jan-19 14:33N 48°53' W 123°27'1111.5
2015-Jan-19 13:33N 48°44' W 123°16'1010.4
2015-Jan-19 12:33N 48°47' W 123°01'1110.8
2015-Jan-19 11:33N 48°56' W 123°11'1212.0
2015-Jan-19 10:33N 49°04' W 123°25'1312.5
2015-Jan-19 09:33N 49°12' W 123°40'9 8.5
2015-Jan-19 08:33N 49°09' W 123°52'1 1.0
2015-Jan-19 07:33N 49°08' W 123°51'0 0.0
2015-Jan-19 06:33N 49°08' W 123°51'0 0.0
2015-Jan-19 05:33N 49°08' W 123°51'0 0.0
2015-Jan-19 04:34N 49°08' W 123°51'0 0.0
2015-Jan-19 03:33N 49°08' W 123°51'1 0.5
2015-Jan-19 02:33N 49°09' W 123°51'5 5.1
2015-Jan-19 01:33N 49°14' W 123°48'1312.5
2015-Jan-19 00:34N 49°17' W 123°30'1212.2
2015-Jan-18 23:33N 49°19' W 123°11'4 3.6
2015-Jan-18 22:33N 49°18' W 123°06'0 0.0
2015-Jan-18 21:34N 49°18' W 123°06'0 0.0
2015-Jan-18 20:33N 49°18' W 123°06'0 0.1
2015-Jan-18 19:33N 49°18' W 123°06'0 0.1
2015-Jan-18 18:34N 49°18' W 123°06'0 0.1
2015-Jan-18 17:33N 49°18' W 123°06'8 7.6
2015-Jan-18 16:34N 49°20' W 123°18'1110.0
2015-Jan-18 15:29N 49°31' W 123°17'  
Track history (hours):
 
Tides and Currents Weather Stations Pressure Air Temp Water Temp Dewpoint Dewpoint Depression Visibility Wind Speed Wind Dir Waves Ship Positions

Star Dieppe

Last reported at 2015-Jan-27 05:05 UTC. Time now 2015-Jan-27 10:30 UTC.
Position N 29°57' E 122°15'.

Length 182 m; draft 9.8 m.

Type: Cargo ship. MMSI: 257439000.

Date/timePositionNaut miles runAvg speedWind from/ knotsBaromVisibWave heightAir tempDewpointWater temp
2015-Jan-27 05:05N 29°57' E 122°15'49711962.3
2015-Jan-27 02:33N 54°19' W 130°57'1211.8
2015-Jan-27 01:33N 54°15' W 130°38'9 9.1
2015-Jan-27 00:33N 54°10' W 130°25'49974727.6
2015-Jan-26 23:29N 29°57' E 122°15'0 0.0
2015-Jan-26 17:17N 29°57' E 122°15'0 0.0
2015-Jan-26 16:17N 29°57' E 122°15'  
2015-Jan-24 06:29N 51°24' W 128°27'1612.8
2015-Jan-24 05:15N 51°09' W 128°23'1012.4
2015-Jan-24 04:25N 50°59' W 128°26'1112.2
2015-Jan-24 03:33N 50°48' W 128°30'12711.6
2015-Jan-23 16:33N 49°08' W 126°27'1212.5
2015-Jan-23 15:33N 49°01' W 126°12'1211.7
2015-Jan-23 14:33N 48°54' W 125°57'1111.0
2015-Jan-23 13:33N 48°51' W 125°41'1111.3
2015-Jan-23 12:33N 48°48' W 125°25'10 9.6
2015-Jan-23 11:33N 48°50' W 125°11'1110.8
2015-Jan-23 10:30N 48°58' W 124°59'9 9.7
2015-Jan-23 09:33N 49°05' W 124°50'8 8.2
2015-Jan-23 08:33N 49°13' W 124°49'0 0.4
2015-Jan-23 07:32N 49°14' W 124°49'0 0.0
2015-Jan-23 05:23N 49°14' W 124°49'0 0.0
2015-Jan-23 04:29N 49°14' W 124°49'0 0.0
2015-Jan-23 03:26N 49°14' W 124°49'0 0.0
2015-Jan-23 02:32N 49°14' W 124°49'0 0.0
2015-Jan-23 01:20N 49°14' W 124°49'0 0.0
2015-Jan-23 00:32N 49°14' W 124°49'0 0.0
2015-Jan-22 23:32N 49°14' W 124°49'0 0.0
2015-Jan-22 22:32N 49°14' W 124°49'0 0.0
2015-Jan-22 21:32N 49°14' W 124°49'0 0.0
2015-Jan-22 20:32N 49°14' W 124°49'0 0.0
2015-Jan-22 19:32N 49°14' W 124°49'0 0.0
2015-Jan-22 18:32N 49°14' W 124°49'0 0.0
2015-Jan-22 17:26N 49°14' W 124°49'0 0.0
2015-Jan-22 16:32N 49°14' W 124°49'0 0.0
2015-Jan-22 15:20N 49°14' W 124°49'0 0.0
2015-Jan-22 14:32N 49°14' W 124°49'0 0.0
2015-Jan-22 13:32N 49°14' W 124°49'0 0.0
2015-Jan-22 12:32N 49°14' W 124°49'0 0.0
2015-Jan-22 11:26N 49°14' W 124°49'0 0.0
2015-Jan-22 10:32N 49°14' W 124°49'0 0.0
2015-Jan-22 09:26N 49°14' W 124°49'0 0.0
2015-Jan-22 08:32N 49°14' W 124°49'0 0.0
2015-Jan-22 07:32N 49°14' W 124°49'0 0.0
2015-Jan-22 06:26N 49°14' W 124°49'0 0.0
2015-Jan-22 05:32N 49°14' W 124°49'0 0.0
2015-Jan-22 04:20N 49°14' W 124°49'0 0.0
2015-Jan-22 03:32N 49°14' W 124°49'0 0.0
2015-Jan-22 02:20N 49°14' W 124°49'0 0.0
2015-Jan-22 01:23N 49°14' W 124°49'0 0.0
2015-Jan-22 00:29N 49°14' W 124°49'0 0.0
2015-Jan-21 23:26N 49°14' W 124°49'0 0.0
2015-Jan-21 22:44N 49°14' W 124°49'0 0.0
2015-Jan-21 22:32N 49°14' W 124°49'0 0.0
2015-Jan-21 21:32N 49°14' W 124°49'0 0.0
2015-Jan-21 20:32N 49°14' W 124°49'0 0.0
2015-Jan-21 19:32N 49°14' W 124°49'0 0.0
2015-Jan-21 18:32N 49°14' W 124°49'0 0.0
2015-Jan-21 17:26N 49°14' W 124°49'0 0.0
2015-Jan-21 16:26N 49°14' W 124°49'0 0.0
2015-Jan-21 15:29N 49°14' W 124°49'0 0.0
2015-Jan-21 14:33N 49°14' W 124°49'6 6.1
2015-Jan-21 13:33N 49°08' W 124°49'1010.1
2015-Jan-21 12:32N 48°59' W 124°56'1111.4
2015-Jan-21 11:33N 48°51' W 125°09'1010.4
2015-Jan-21 10:33N 48°41' W 125°13'1111.3
2015-Jan-21 09:33N 48°31' W 125°05'1211.8
2015-Jan-21 08:33N 48°31' W 124°47'1111.2
2015-Jan-21 07:33N 48°27' W 124°31'1312.5
2015-Jan-21 06:33N 48°23' W 124°14'1413.5
2015-Jan-21 05:33N 48°17' W 123°55'1515.0
2015-Jan-21 04:33N 48°15' W 123°33'1312.8
2015-Jan-21 03:33N 48°23' W 123°17'1312.8
2015-Jan-21 02:34N 48°36' W 123°14'1414.0
2015-Jan-21 01:33N 48°49' W 123°21'1312.8
2015-Jan-21 00:33N 48°57' W 123°36'5 4.7
2015-Jan-20 23:33N 48°56' W 123°43'0 0.1
2015-Jan-20 22:33N 48°55' W 123°43'0 0.0
2015-Jan-20 21:10N 48°55' W 123°43'0 0.0
2015-Jan-20 20:28N 48°55' W 123°43'0 0.0
2015-Jan-20 19:31N 48°55' W 123°43'0 0.0
2015-Jan-20 18:31N 48°55' W 123°43'0 0.0
2015-Jan-20 17:22N 48°55' W 123°43'0 0.0
2015-Jan-20 16:31N 48°55' W 123°43'0 0.0
2015-Jan-20 15:16N 48°55' W 123°43'0 0.0
2015-Jan-20 14:33N 48°55' W 123°43'0 0.0
2015-Jan-20 13:33N 48°55' W 123°43'0 0.0
2015-Jan-20 12:33N 48°55' W 123°43'0 0.0
2015-Jan-20 11:33N 48°55' W 123°43'0 0.0
2015-Jan-20 10:33N 48°55' W 123°43'0 0.0
2015-Jan-20 09:27N 48°55' W 123°43'0 0.0
2015-Jan-20 08:32N 48°55' W 123°43'0 0.0
2015-Jan-20 07:32N 48°55' W 123°43'0 0.0
2015-Jan-20 06:32N 48°55' W 123°43'0 0.0
2015-Jan-20 05:26N 48°55' W 123°43'0 0.0
2015-Jan-20 04:29N 48°55' W 123°43'0 0.0
2015-Jan-20 03:14N 48°55' W 123°43'0 0.0
2015-Jan-20 02:14N 48°55' W 123°43'0 0.0
2015-Jan-20 01:32N 48°55' W 123°43'0 0.0
2015-Jan-20 00:25N 48°55' W 123°43'0 0.0
2015-Jan-19 23:31N 48°55' W 123°43'0 0.0
2015-Jan-19 22:31N 48°55' W 123°43'0 0.0
2015-Jan-19 21:31N 48°55' W 123°43'0 0.0
2015-Jan-19 20:30N 48°55' W 123°43'0 0.0
2015-Jan-19 19:12N 48°55' W 123°43'0 0.0
2015-Jan-19 18:30N 48°55' W 123°43'0 0.0
2015-Jan-19 17:24N 48°55' W 123°43'0 0.0
2015-Jan-19 16:33N 48°55' W 123°43'3 2.5
2015-Jan-19 15:33N 48°55' W 123°39'8 8.1
2015-Jan-19 14:33N 48°53' W 123°27'1111.5
2015-Jan-19 13:33N 48°44' W 123°16'1010.4
2015-Jan-19 12:33N 48°47' W 123°01'1110.8
2015-Jan-19 11:33N 48°56' W 123°11'1212.0
2015-Jan-19 10:33N 49°04' W 123°25'1312.5
2015-Jan-19 09:33N 49°12' W 123°40'9 8.5
2015-Jan-19 08:33N 49°09' W 123°52'1 1.0
2015-Jan-19 07:33N 49°08' W 123°51'0 0.0
2015-Jan-19 06:33N 49°08' W 123°51'0 0.0
2015-Jan-19 05:33N 49°08' W 123°51'0 0.0
2015-Jan-19 04:34N 49°08' W 123°51'0 0.0
2015-Jan-19 03:33N 49°08' W 123°51'1 0.5
2015-Jan-19 02:33N 49°09' W 123°51'5 5.1
2015-Jan-19 01:33N 49°14' W 123°48'1312.5
2015-Jan-19 00:34N 49°17' W 123°30'1212.2
2015-Jan-18 23:33N 49°19' W 123°11'4 3.6
2015-Jan-18 22:33N 49°18' W 123°06'0 0.0
2015-Jan-18 21:34N 49°18' W 123°06'0 0.0
2015-Jan-18 20:33N 49°18' W 123°06'0 0.1
2015-Jan-18 19:33N 49°18' W 123°06'0 0.1
2015-Jan-18 18:34N 49°18' W 123°06'0 0.1
2015-Jan-18 17:33N 49°18' W 123°06'8 7.6
2015-Jan-18 16:34N 49°20' W 123°18'1110.0
2015-Jan-18 15:29N 49°31' W 123°17'  

Dump ship's entire track history